Time;durP1;ratioP1;P1;durP2;ratioP2;P2;SDS_P1;SDS_P2;PMS_P1;PMS_P2;Temp;Humidity;BMP_temperature;BMP_pressure;BME280_temperature;BME280_humidity;BME280_pressure;Samples;Min_cycle;Max_cycle;Signal;HPM_P1;HPM_P2
2021/04/03 00:01:51;;;;;;;17.75;14.07;;;;;;;11.33;72.91;94304.41;2985240;39;20418;-84
2021/04/03 00:03:53;;;;;;;18.17;15.57;;;;;;;11.35;73.17;94310.31;2993173;39;20094;-72
2021/04/03 00:05:54;;;;;;;18.60;15.18;;;;;;;11.36;73.06;94298.84;2990443;39;20063;-73
2021/04/03 00:07:55;;;;;;;19.02;14.93;;;;;;;11.43;72.68;94297.16;2990119;39;20060;-71
2021/04/03 00:09:57;;;;;;;19.55;15.93;;;;;;;11.48;72.79;94292.19;2989794;39;20064;-72
2021/04/03 00:11:58;;;;;;;21.15;15.20;;;;;;;11.57;72.30;94283.28;2987965;39;20097;-72
2021/04/03 00:13:59;;;;;;;21.73;14.60;;;;;;;11.64;71.94;94278.97;2988344;39;20714;-72
2021/04/03 00:16:01;;;;;;;19.27;15.73;;;;;;;11.71;71.69;94284.31;2990238;39;20092;-74
2021/04/03 00:18:02;;;;;;;20.65;14.93;;;;;;;11.75;71.38;94275.09;2980048;39;20451;-72
2021/04/03 00:20:07;;;;;;;19.05;15.07;;;;;;;11.81;71.32;94274.41;2987853;39;20150;-72
2021/04/03 00:22:08;;;;;;;18.17;14.85;;;;;;;11.81;71.76;94278.84;2989042;39;20083;-72
2021/04/03 00:24:10;;;;;;;18.95;15.43;;;;;;;11.73;71.66;94281.53;2988038;39;20091;-72
2021/04/03 00:26:13;;;;;;;20.35;16.08;;;;;;;11.51;72.58;94285.78;2988233;39;20411;-72
2021/04/03 00:28:14;;;;;;;28.95;21.05;;;;;;;10.93;76.13;94291.38;2986860;39;20091;-71
2021/04/03 00:30:18;;;;;;;28.52;20.38;;;;;;;10.73;77.31;94280.47;2990252;39;20072;-71
2021/04/03 00:32:19;;;;;;;25.95;20.00;;;;;;;10.69;77.34;94283.59;2989306;39;20576;-72
2021/04/03 00:34:20;;;;;;;27.48;20.83;;;;;;;10.66;78.00;94282.13;2989824;39;20063;-72
2021/04/03 00:36:21;;;;;;;25.95;21.00;;;;;;;10.62;78.23;94273.78;2980109;39;20074;-71
2021/04/03 00:38:23;;;;;;;23.38;19.85;;;;;;;10.52;78.32;94272.34;2989373;39;20059;-71
2021/04/03 00:40:38;;;;;;;24.48;20.08;;;;;;;10.53;78.88;94281.88;2979899;39;20557;-71
2021/04/03 00:42:40;;;;;;;27.27;22.15;;;;;;;10.54;78.97;94275.63;2987442;39;20120;-72
2021/04/03 00:44:48;;;;;;;30.67;22.23;;;;;;;10.44;79.37;94281.88;2989008;39;20541;-71
2021/04/03 00:46:49;;;;;;;29.95;23.75;;;;;;;10.39;78.98;94278.97;2990542;39;20471;-71
2021/04/03 00:48:51;;;;;;;28.88;22.70;;;;;;;10.39;80.15;94272.88;2989549;39;20143;-71
2021/04/03 00:50:54;;;;;;;29.95;23.65;;;;;;;10.46;79.32;94273.88;2989017;39;20509;-72
2021/04/03 00:52:55;;;;;;;28.33;22.70;;;;;;;10.50;78.96;94266.50;2987888;39;20083;-71
2021/04/03 00:54:56;;;;;;;30.02;23.80;;;;;;;10.60;79.01;94272.34;2987967;39;20159;-70
2021/04/03 00:56:58;;;;;;;28.67;23.13;;;;;;;10.65;78.19;94273.47;2988040;39;20079;-72
2021/04/03 00:58:59;;;;;;;33.00;24.52;;;;;;;10.68;78.11;94271.50;2990351;39;20293;-71
2021/04/03 01:01:02;;;;;;;30.80;24.02;;;;;;;10.63;78.29;94275.44;2988059;39;20171;-71
2021/04/03 01:03:04;;;;;;;30.88;23.63;;;;;;;10.70;78.32;94272.97;2989337;39;20075;-72
2021/04/03 01:05:13;;;;;;;29.35;24.25;;;;;;;10.69;77.88;94275.72;2974836;39;20080;-85
2021/04/03 01:07:14;;;;;;;34.67;24.20;;;;;;;10.69;78.54;94267.88;2992118;39;20064;-86
2021/04/03 01:09:16;;;;;;;32.03;23.55;;;;;;;10.77;78.14;94263.41;2992110;39;20071;-85
2021/04/03 01:11:17;;;;;;;33.53;24.73;;;;;;;10.88;77.60;94262.22;2987153;39;20180;-71
2021/04/03 01:13:37;;;;;;;33.28;25.08;;;;;;;10.84;77.68;94263.53;2987900;39;20079;-71
2021/04/03 01:15:38;;;;;;;28.58;23.40;;;;;;;10.85;77.54;94263.38;2985750;39;20089;-72
2021/04/03 01:17:39;;;;;;;30.17;23.92;;;;;;;10.90;77.27;94254.19;2981665;39;20303;-71
2021/04/03 01:20:09;;;;;;;31.92;24.70;;;;;;;10.99;77.38;94254.00;2981502;39;20087;-71
2021/04/03 01:22:53;;;;;;;31.38;23.67;;;;;;;11.08;76.66;94254.75;2983569;39;20159;-73
2021/04/03 01:25:11;;;;;;;29.30;23.80;;;;;;;11.18;76.27;94254.53;2987042;39;20087;-72
2021/04/03 01:27:16;;;;;;;31.10;24.08;;;;;;;11.20;75.90;94255.16;2990525;39;20075;-84
2021/04/03 01:29:39;;;;;;;32.42;24.30;;;;;;;11.26;75.64;94250.03;2992124;39;20064;-85
2021/04/03 01:31:46;;;;;;;31.15;24.92;;;;;;;11.28;75.36;94252.50;2993524;39;20067;-85
2021/04/03 01:33:49;;;;;;;30.40;25.25;;;;;;;11.31;75.02;94241.66;2991922;39;20064;-85
2021/04/03 01:36:14;;;;;;;32.40;27.07;;;;;;;11.28;75.40;94242.81;2993267;39;20160;-85
2021/04/03 01:38:17;;;;;;;;;;;;;;;11.31;75.02;94239.03;2992645;39;20088;-84
2021/04/03 01:40:20;;;;;;;32.30;24.85;;;;;;;11.28;75.40;94242.00;2980170;40;19920;-82
2021/04/03 01:42:32;;;;;;;37.22;25.73;;;;;;;11.11;76.18;94241.28;2987598;39;20083;-84
2021/04/03 01:44:37;;;;;;;33.50;26.30;;;;;;;10.95;76.40;94242.22;2982083;39;20064;-83
2021/04/03 01:46:38;;;;;;;35.97;27.80;;;;;;;10.70;77.90;94232.84;2998378;39;20087;-86
2021/04/03 01:48:41;;;;;;;36.78;27.70;;;;;;;10.71;78.00;94239.72;2995475;39;20088;-84
2021/04/03 01:50:43;;;;;;;33.55;28.40;;;;;;;10.72;77.54;94244.78;2981427;39;20070;-84
2021/04/03 01:52:46;;;;;;;33.22;27.23;;;;;;;10.78;77.66;94236.25;2989507;39;20060;-84
2021/04/03 01:54:48;;;;;;;34.35;27.55;;;;;;;10.86;77.07;94238.00;2997180;39;20399;-85
2021/04/03 01:56:52;;;;;;;36.97;28.85;;;;;;;10.92;76.97;94233.88;2984380;39;20075;-85
2021/04/03 01:58:54;;;;;;;38.95;28.20;;;;;;;10.95;76.64;94230.91;2982519;39;20332;-83
2021/04/03 02:00:57;;;;;;;34.55;27.48;;;;;;;10.98;76.06;94231.38;2989007;39;20076;-84
2021/04/03 02:02:58;;;;;;;35.88;27.52;;;;;;;11.04;76.16;94233.31;2992620;39;20087;-84
2021/04/03 02:05:00;;;;;;;35.00;25.98;;;;;;;11.06;75.66;94231.34;2992406;39;20073;-84
2021/04/03 02:07:01;;;;;;;31.83;26.63;;;;;;;11.10;75.91;94228.34;2993489;39;20063;-85
2021/04/03 02:09:04;;;;;;;30.70;24.50;;;;;;;11.11;75.09;94224.75;2994176;39;20331;-86
2021/04/03 02:11:06;;;;;;;32.22;25.00;;;;;;;11.15;74.84;94232.09;2993667;39;20067;-84
2021/04/03 02:13:08;;;;;;;36.97;26.67;;;;;;;11.17;74.84;94211.78;2993924;39;20144;-71
2021/04/03 02:15:11;;;;;;;34.30;25.92;;;;;;;11.18;74.62;94220.44;2979886;39;20137;-72
2021/04/03 02:17:14;;;;;;;30.77;25.10;;;;;;;11.20;75.04;94219.28;2983179;39;20315;-72
2021/04/03 02:19:15;;;;;;;37.40;26.02;;;;;;;11.21;74.65;94218.28;2986377;39;20401;-72
2021/04/03 02:21:17;;;;;;;31.85;25.30;;;;;;;11.25;74.28;94226.63;2983839;39;20071;-72
2021/04/03 02:23:18;;;;;;;30.38;25.13;;;;;;;11.25;74.43;94216.16;2978447;39;20091;-73
2021/04/03 02:25:19;;;;;;;29.75;24.48;;;;;;;11.25;74.01;94214.34;2986920;39;20083;-74
2021/04/03 02:27:21;;;;;;;30.42;23.90;;;;;;;11.24;74.43;94219.75;2989009;39;20067;-72
2021/04/03 02:29:22;;;;;;;27.38;23.75;;;;;;;11.22;73.87;94211.25;2989720;39;20285;-73
2021/04/03 02:31:28;;;;;;;30.77;25.05;;;;;;;11.18;74.07;94208.13;2989321;39;20401;-73
2021/04/03 02:33:30;;;;;;;29.52;24.13;;;;;;;11.17;74.26;94214.38;2989526;39;20391;-72
2021/04/03 02:35:32;;;;;;;29.98;24.17;;;;;;;11.14;74.55;94213.91;2983017;39;20083;-72
2021/04/03 02:37:33;;;;;;;30.25;23.70;;;;;;;11.13;74.49;94220.97;2987183;39;20073;-72
2021/04/03 02:39:34;;;;;;;33.33;23.48;;;;;;;11.12;74.41;94211.50;2986313;39;20056;-72
2021/04/03 02:41:42;;;;;;;33.30;23.77;;;;;;;11.10;74.51;94207.38;2985802;39;20160;-72
2021/04/03 02:43:51;;;;;;;32.65;22.90;;;;;;;11.11;74.16;94209.03;2979465;39;20094;-71
2021/04/03 02:46:06;;;;;;;29.58;23.98;;;;;;;11.07;74.76;94204.13;2988703;39;20408;-70
2021/04/03 02:48:10;;;;;;;28.48;23.23;;;;;;;11.04;74.50;94203.66;2989536;39;20164;-72
2021/04/03 02:50:15;;;;;;;;;;;;;;;11.03;74.63;94194.16;2979368;39;20067;-71
2021/04/03 02:52:16;;;;;;;32.20;24.75;;;;;;;10.99;74.79;94198.13;2989527;39;19923;-72
2021/04/03 02:54:21;;;;;;;34.88;25.50;;;;;;;10.98;74.63;94193.88;2986480;39;20091;-71
2021/04/03 02:56:22;;;;;;;32.08;26.08;;;;;;;10.95;74.82;94200.28;2987801;39;20181;-71
2021/04/03 02:58:25;;;;;;;30.50;25.45;;;;;;;10.98;75.05;94197.31;2987451;39;20100;-72
2021/04/03 03:00:27;;;;;;;30.02;24.20;;;;;;;10.97;74.76;94192.22;2983710;39;20084;-71
2021/04/03 03:02:28;;;;;;;34.15;24.40;;;;;;;10.96;74.54;94201.09;2971107;39;20178;-72
2021/04/03 03:04:30;;;;;;;32.25;22.98;;;;;;;10.90;74.81;94197.34;2986904;39;20208;-73
2021/04/03 03:06:32;;;;;;;28.85;23.73;;;;;;;10.91;74.97;94195.56;2987245;39;20060;-72
2021/04/03 03:08:36;;;;;;;30.13;24.42;;;;;;;10.88;74.79;94188.84;2987900;39;20087;-72
2021/04/03 03:10:37;;;;;;;31.65;24.88;;;;;;;10.90;74.80;94191.31;2989419;39;20067;-86
2021/04/03 03:12:42;;;;;;;34.03;25.45;;;;;;;10.93;74.42;94189.16;2996098;39;20075;-84
2021/04/03 03:14:44;;;;;;;38.53;27.55;;;;;;;10.91;74.46;94188.50;2998227;39;20048;-86
2021/04/03 03:16:47;;;;;;;34.77;26.73;;;;;;;10.94;74.74;94182.91;2985462;39;20404;-84
2021/04/03 03:18:49;;;;;;;47.88;32.70;;;;;;;10.92;74.14;94177.03;2983514;39;20145;-83
2021/04/03 03:20:50;;;;;;;37.35;27.50;;;;;;;10.94;73.79;94176.88;2992033;39;20066;-86
2021/04/03 03:22:51;;;;;;;35.10;27.33;;;;;;;10.91;74.21;94177.22;2977000;39;20064;-85
2021/04/03 03:24:53;;;;;;;37.22;27.35;;;;;;;10.91;74.15;94170.16;2990528;39;20059;-84
2021/04/03 03:26:55;;;;;;;32.75;25.83;;;;;;;10.93;74.22;94172.63;2988421;39;20548;-85
2021/04/03 03:28:56;;;;;;;59.72;42.70;;;;;;;10.95;74.30;94173.25;2991191;39;20063;-72
2021/04/03 03:30:58;;;;;;;41.15;29.77;;;;;;;10.93;73.93;94172.63;2979052;39;20087;-72
2021/04/03 03:32:59;;;;;;;59.78;42.95;;;;;;;10.89;74.37;94174.78;2984265;39;20079;-71
2021/04/03 03:35:01;;;;;;;49.53;37.70;;;;;;;10.89;74.16;94184.44;2988585;39;20174;-72
2021/04/03 03:37:03;;;;;;;36.42;27.60;;;;;;;10.86;73.88;94175.94;2988507;39;20328;-86
2021/04/03 03:39:05;;;;;;;31.52;25.00;;;;;;;10.88;73.91;94180.97;2999400;39;20409;-83
2021/04/03 03:41:07;;;;;;;31.48;22.90;;;;;;;10.86;73.68;94177.72;2991240;39;20068;-87
2021/04/03 03:43:15;;;;;;;29.25;21.77;;;;;;;10.84;73.44;94179.69;2996208;39;20087;-85
2021/04/03 03:45:18;;;;;;;28.55;23.00;;;;;;;10.85;73.64;94183.97;2988457;39;20069;-87
2021/04/03 03:47:19;;;;;;;28.17;22.65;;;;;;;10.86;74.02;94182.97;2994029;39;20074;-86
2021/04/03 03:49:21;;;;;;;34.25;26.00;;;;;;;10.81;73.83;94177.44;2994682;39;20059;-85
2021/04/03 03:51:22;;;;;;;54.10;39.60;;;;;;;10.80;73.94;94181.06;2994654;39;20063;-84
2021/04/03 03:53:23;;;;;;;39.15;29.10;;;;;;;10.78;74.12;94188.28;2987046;39;20064;-85
2021/04/03 03:55:24;;;;;;;64.38;45.42;;;;;;;10.75;73.57;94178.13;2989964;39;20377;-85
2021/04/03 03:57:26;;;;;;;34.58;24.42;;;;;;;10.73;73.55;94186.16;2994064;39;20082;-86
2021/04/03 03:59:27;;;;;;;31.52;22.33;;;;;;;10.72;73.26;94184.53;2992318;39;20059;-84
2021/04/03 04:01:28;;;;;;;27.52;20.83;;;;;;;10.74;73.72;94189.59;2995421;39;20079;-85
2021/04/03 04:03:29;;;;;;;29.73;20.92;;;;;;;10.75;73.71;94188.59;2985386;39;20060;-86
2021/04/03 04:05:31;;;;;;;29.98;22.45;;;;;;;10.76;73.70;94192.88;2995122;39;20072;-85
2021/04/03 04:07:34;;;;;;;28.33;22.30;;;;;;;10.68;74.17;94187.66;2989684;39;20060;-86
2021/04/03 04:09:36;;;;;;;28.95;22.60;;;;;;;10.63;73.99;94186.38;2990235;39;20146;-86
2021/04/03 04:11:37;;;;;;;27.75;21.60;;;;;;;10.65;74.20;94186.22;2984582;39;20082;-86
2021/04/03 04:13:39;;;;;;;33.33;23.25;;;;;;;10.64;74.54;94185.38;2989434;39;20064;-72
2021/04/03 04:15:40;;;;;;;27.85;21.52;;;;;;;10.67;74.31;94189.47;2980584;39;20071;-73
2021/04/03 04:17:41;;;;;;;31.50;23.25;;;;;;;10.71;73.97;94189.94;2986991;39;20067;-72
2021/04/03 04:19:42;;;;;;;33.60;23.48;;;;;;;10.72;74.16;94189.78;2990476;39;20079;-72
2021/04/03 04:21:43;;;;;;;32.08;23.08;;;;;;;10.79;74.09;94189.88;2991936;39;20087;-85
2021/04/03 04:23:45;;;;;;;47.67;34.90;;;;;;;10.86;73.99;94186.41;2994051;39;20217;-87
2021/04/03 04:25:46;;;;;;;35.60;26.35;;;;;;;10.49;75.02;94188.91;2991926;39;20164;-83
2021/04/03 04:27:48;;;;;;;33.13;24.48;;;;;;;10.43;75.45;94190.38;2992570;39;20063;-84
2021/04/03 04:29:49;;;;;;;34.72;26.83;;;;;;;10.49;74.96;94189.72;2997585;39;20060;-86
2021/04/03 04:31:50;;;;;;;35.15;24.50;;;;;;;10.54;75.34;94192.66;2994647;39;20087;-84
2021/04/03 04:33:51;;;;;;;31.77;26.45;;;;;;;10.53;74.81;94177.09;2988581;39;20070;-84
2021/04/03 04:35:53;;;;;;;34.17;25.02;;;;;;;10.60;74.83;94191.13;2982646;39;20412;-85
2021/04/03 04:37:57;;;;;;;32.33;24.48;;;;;;;10.65;74.34;94184.41;2993008;39;20074;-86
2021/04/03 04:39:59;;;;;;;28.92;23.25;;;;;;;10.70;74.17;94193.56;2984696;39;20067;-85
2021/04/03 04:42:00;;;;;;;32.97;24.48;;;;;;;10.74;74.13;94193.03;2990288;39;20072;-84
2021/04/03 04:44:01;;;;;;;30.02;22.05;;;;;;;10.79;73.62;94188.06;2989536;39;20401;-86
2021/04/03 04:46:02;;;;;;;28.70;23.70;;;;;;;10.83;73.87;94188.56;2992213;39;20140;-87
2021/04/03 04:48:04;;;;;;;34.60;25.85;;;;;;;10.75;73.71;94192.03;2986742;39;20060;-87
2021/04/03 04:50:07;;;;;;;32.72;25.35;;;;;;;10.74;73.94;94197.47;2994513;39;20055;-85
2021/04/03 04:52:08;;;;;;;35.55;25.65;;;;;;;10.75;74.31;94201.69;2991797;39;20402;-86
2021/04/03 04:54:10;;;;;;;37.53;27.15;;;;;;;10.64;74.99;94208.94;2992304;39;20533;-86
2021/04/03 04:56:11;;;;;;;41.85;28.75;;;;;;;10.40;75.99;94206.44;2999186;39;20079;-87
2021/04/03 04:58:12;;;;;;;44.08;32.47;;;;;;;10.19;76.87;94204.38;3000600;39;20074;-85
2021/04/03 05:00:14;;;;;;;43.53;34.47;;;;;;;10.08;77.80;94196.88;2997310;39;20072;-86
2021/04/03 05:02:16;;;;;;;44.90;33.17;;;;;;;9.94;77.65;94204.44;2991672;39;20097;-85
2021/04/03 05:04:17;;;;;;;44.25;34.55;;;;;;;9.87;78.32;94205.25;2990957;39;20150;-73
2021/04/03 05:06:18;;;;;;;44.33;35.10;;;;;;;9.91;78.52;94196.09;2988529;39;20158;-73
2021/04/03 05:08:20;;;;;;;50.75;34.55;;;;;;;10.00;78.85;94192.47;2989859;39;20082;-72
2021/04/03 05:10:21;;;;;;;49.10;34.20;;;;;;;10.12;78.32;94193.75;2986145;39;20082;-73
2021/04/03 05:12:22;;;;;;;43.55;34.05;;;;;;;10.24;77.30;94195.03;2983120;39;20083;-72
2021/04/03 05:14:23;;;;;;;41.75;34.10;;;;;;;10.29;76.81;94191.09;2989191;39;20083;-72
2021/04/03 05:16:25;;;;;;;45.17;34.42;;;;;;;10.31;76.65;94194.38;2983293;39;20071;-71
2021/04/03 05:18:26;;;;;;;51.47;35.97;;;;;;;10.13;77.00;94200.63;2986731;39;20063;-72
2021/04/03 05:20:27;;;;;;;50.20;35.40;;;;;;;9.91;77.87;94190.88;2987860;39;20088;-72
2021/04/03 05:22:28;;;;;;;63.55;46.67;;;;;;;9.79;78.64;94193.84;2989926;39;20079;-87
2021/04/03 05:24:29;;;;;;;49.35;36.47;;;;;;;9.71;78.97;94193.84;2987104;39;20084;-86
2021/04/03 05:26:31;;;;;;;71.43;49.08;;;;;;;9.63;79.82;94191.25;2988665;39;20300;-86
2021/04/03 05:28:32;;;;;;;44.50;34.85;;;;;;;9.58;79.93;94193.56;2992851;39;20083;-86
2021/04/03 05:30:33;;;;;;;44.55;33.20;;;;;;;9.71;79.66;94201.69;2993242;39;20084;-86
2021/04/03 05:32:35;;;;;;;46.88;32.65;;;;;;;9.74;78.82;94203.97;2986876;39;20071;-86
2021/04/03 05:34:36;;;;;;;58.70;33.60;;;;;;;9.62;79.93;94205.31;2992331;39;20164;-84
2021/04/03 05:36:53;;;;;;;60.47;33.75;;;;;;;9.55;79.99;94199.09;2992628;39;20083;-85
2021/04/03 05:38:54;;;;;;;48.65;34.88;;;;;;;9.62;79.99;94205.31;2993373;39;20081;-85
2021/04/03 05:40:55;;;;;;;43.08;33.35;;;;;;;9.74;79.23;94196.13;2994551;39;20091;-86
2021/04/03 05:42:58;;;;;;;45.80;31.42;;;;;;;9.87;79.82;94194.81;2992192;39;20078;-85
2021/04/03 05:45:03;;;;;;;43.47;31.67;;;;;;;9.96;78.50;94202.47;2991701;39;20101;-86
2021/04/03 05:47:04;;;;;;;54.47;34.78;;;;;;;9.81;78.93;94197.13;2993201;39;20396;-88
2021/04/03 05:49:06;;;;;;;50.80;31.65;;;;;;;9.78;78.98;94197.44;2994208;39;20402;-88
2021/04/03 05:51:07;;;;;;;64.25;31.75;;;;;;;9.79;79.24;94196.47;2991242;39;20066;-86
2021/04/03 05:53:08;;;;;;;50.15;30.75;;;;;;;9.84;79.38;94206.41;2987401;39;20075;-85
2021/04/03 05:55:10;;;;;;;42.55;30.90;;;;;;;9.89;78.94;94208.53;2993442;39;20071;-86
2021/04/03 05:57:11;;;;;;;40.67;30.33;;;;;;;9.99;79.21;94204.75;2992881;39;20167;-88
2021/04/03 05:59:15;;;;;;;74.05;51.10;;;;;;;10.17;78.71;94206.34;2984266;39;20079;-84
2021/04/03 06:01:17;;;;;;;54.78;32.95;;;;;;;10.30;77.33;94208.44;2985838;39;20073;-84
2021/04/03 06:03:18;;;;;;;43.20;30.83;;;;;;;10.44;76.62;94207.75;2990769;39;20055;-86
2021/04/03 06:05:19;;;;;;;45.92;30.67;;;;;;;10.44;76.51;94203.31;2992983;39;20071;-88
2021/04/03 06:07:21;;;;;;;42.30;30.25;;;;;;;10.48;76.91;94200.38;2976784;40;20088;-85
2021/04/03 06:09:22;;;;;;;46.38;30.58;;;;;;;10.53;76.10;94211.16;2995055;39;20067;-85
2021/04/03 06:11:23;;;;;;;43.47;31.58;;;;;;;10.30;76.89;94211.88;2989232;39;20052;-86
2021/04/03 06:13:25;;;;;;;43.25;30.15;;;;;;;10.30;77.23;94211.88;2997809;39;20106;-85
2021/04/03 06:15:31;;;;;;;44.22;32.53;;;;;;;10.14;77.17;94202.25;2993489;39;20391;-86
2021/04/03 06:17:33;;;;;;;42.75;30.30;;;;;;;10.20;77.18;94206.00;2985791;39;20075;-87
2021/04/03 06:19:35;;;;;;;42.75;31.88;;;;;;;10.48;77.45;94205.63;2985161;39;20400;-85
2021/04/03 06:21:45;;;;;;;38.80;28.75;;;;;;;10.82;76.36;94205.28;2985986;39;20416;-89
2021/04/03 06:23:46;;;;;;;35.05;28.25;;;;;;;11.04;75.13;94209.72;2990250;39;20091;-89
2021/04/03 06:25:58;;;;;;;35.17;28.05;;;;;;;11.03;74.55;94210.72;2985666;39;20084;-85
2021/04/03 06:28:07;;;;;;;40.13;29.20;;;;;;;10.91;75.43;94200.81;2990828;39;20095;-87
2021/04/03 06:30:29;;;;;;;36.03;29.42;;;;;;;10.97;75.15;94193.06;2985373;39;20384;-86
2021/04/03 06:32:33;;;;;;;38.20;28.25;;;;;;;11.07;75.16;94200.69;2984333;39;20148;-86
2021/04/03 06:34:40;;;;;;;35.50;27.65;;;;;;;11.04;74.52;94201.06;2993414;39;20067;-85
2021/04/03 06:36:45;;;;;;;31.85;24.33;;;;;;;10.78;74.57;94193.50;2989069;39;20095;-87
2021/04/03 06:38:46;;;;;;;32.53;25.75;;;;;;;10.53;76.13;94190.19;2988289;39;20091;-86
2021/04/03 06:40:48;;;;;;;30.40;25.38;;;;;;;10.35;76.55;94198.31;2993002;39;20062;-87
2021/04/03 06:42:52;;;;;;;34.13;27.02;;;;;;;10.41;76.79;94197.59;2992743;39;20071;-87
2021/04/03 06:44:53;;;;;;;36.05;27.00;;;;;;;10.61;76.40;94196.22;2994278;39;20142;-85
2021/04/03 06:46:57;;;;;;;35.22;27.20;;;;;;;10.82;76.59;94200.03;2989312;39;20335;-88
2021/04/03 06:48:59;;;;;;;36.95;28.42;;;;;;;10.94;76.00;94203.06;2989741;39;20079;-86
2021/04/03 06:51:01;;;;;;;38.30;27.58;;;;;;;10.84;75.86;94198.88;2991987;39;20075;-87
2021/04/03 06:53:05;;;;;;;33.03;26.13;;;;;;;10.99;75.14;94198.94;2987030;39;20074;-87
2021/04/03 06:55:17;;;;;;;32.08;24.20;;;;;;;10.86;74.89;94201.31;2996016;39;20097;-84
2021/04/03 06:57:18;;;;;;;31.52;23.38;;;;;;;10.85;74.31;94190.00;2991181;39;20067;-73
2021/04/03 06:59:22;;;;;;;29.85;23.77;;;;;;;10.79;74.55;94188.06;2989438;39;20059;-73
2021/04/03 07:01:25;;;;;;;24.67;20.40;;;;;;;10.98;73.86;94188.63;2986276;39;20059;-72
2021/04/03 07:03:27;;;;;;;28.33;22.95;;;;;;;11.09;73.92;94182.16;2987974;39;20095;-73
2021/04/03 07:05:34;;;;;;;30.73;23.10;;;;;;;11.30;74.08;94184.97;2988242;39;20075;-72
2021/04/03 07:07:35;;;;;;;26.95;20.98;;;;;;;11.55;72.96;94182.13;2987492;39;20067;-73
2021/04/03 07:09:38;;;;;;;25.00;20.33;;;;;;;11.64;71.85;94176.63;2986264;39;20443;-73
2021/04/03 07:11:39;;;;;;;24.33;19.55;;;;;;;11.63;71.89;94180.25;2986330;39;20079;-73
2021/04/03 07:13:43;;;;;;;28.13;21.27;;;;;;;11.76;71.69;94189.31;2988413;39;20068;-74
2021/04/03 07:15:45;;;;;;;26.25;20.25;;;;;;;11.89;70.96;94184.28;2990427;39;20440;-71
2021/04/03 07:17:47;;;;;;;23.58;18.30;;;;;;;11.92;70.33;94181.34;2988582;39;20446;-75
2021/04/03 07:19:49;;;;;;;29.00;19.92;;;;;;;12.01;70.25;94180.25;2982533;39;20176;-72
2021/04/03 07:21:50;;;;;;;28.02;21.73;;;;;;;12.13;69.75;94178.00;2989727;39;20188;-74
2021/04/03 07:23:51;;;;;;;24.70;21.35;;;;;;;12.24;69.65;94182.78;2987043;39;20199;-74
2021/04/03 07:25:58;;;;;;;25.17;21.40;;;;;;;12.27;69.18;94176.34;2988704;39;20079;-73
2021/04/03 07:27:59;;;;;;;26.63;20.50;;;;;;;12.43;68.82;94173.53;2987500;39;20067;-73
2021/04/03 07:30:00;;;;;;;29.55;21.13;;;;;;;12.56;68.65;94172.88;2989523;39;20068;-73
2021/04/03 07:32:04;;;;;;;27.27;21.75;;;;;;;12.66;68.22;94162.06;2990005;39;20064;-73
2021/04/03 07:34:06;;;;;;;26.88;22.00;;;;;;;12.74;67.68;94169.03;2989241;39;20077;-73
2021/04/03 07:36:08;;;;;;;29.30;22.38;;;;;;;12.74;67.79;94169.84;2989482;39;20082;-72
2021/04/03 07:38:11;;;;;;;30.50;24.42;;;;;;;12.77;67.35;94160.78;2990185;39;20397;-78
2021/04/03 07:40:22;;;;;;;28.85;22.88;;;;;;;12.69;67.64;94159.91;2998258;39;20059;-83
2021/04/03 07:42:36;;;;;;;31.55;24.02;;;;;;;12.60;68.35;94155.72;2997835;39;20162;-86
2021/04/03 07:44:38;;;;;;;32.08;22.98;;;;;;;12.83;67.73;94166.09;2998277;39;20085;-86
2021/04/03 07:46:41;;;;;;;30.60;23.40;;;;;;;12.96;66.34;94165.44;2995052;39;20064;-83
2021/04/03 07:48:45;;;;;;;29.52;23.90;;;;;;;13.17;66.31;94172.53;2992225;39;20079;-85
2021/04/03 07:50:47;;;;;;;;;;;;;;;13.20;66.56;94160.81;2998248;39;20079;-85
2021/04/03 07:53:05;;;;;;;33.78;24.90;;;;;;;13.05;66.19;94160.88;2999399;39;19943;-85
2021/04/03 07:55:29;;;;;;;31.13;25.33;;;;;;;12.98;67.11;94149.47;2997483;39;20063;-85
2021/04/03 07:57:34;;;;;;;30.73;23.88;;;;;;;13.03;66.58;94147.91;2997586;39;20067;-86
2021/04/03 07:59:43;;;;;;;32.25;25.10;;;;;;;13.09;66.71;94155.03;2987673;39;20070;-85
2021/04/03 08:01:47;;;;;;;32.72;26.05;;;;;;;13.04;66.47;94149.53;2988491;39;20060;-86
2021/04/03 08:04:02;;;;;;;33.72;25.02;;;;;;;12.90;66.85;94153.03;2992963;39;20060;-85
2021/04/03 08:06:09;;;;;;;33.15;25.95;;;;;;;13.15;66.25;94147.41;2994893;39;20067;-87
2021/04/03 08:08:19;;;;;;;35.47;27.55;;;;;;;13.26;65.50;94152.16;2988402;39;20067;-88
2021/04/03 08:10:21;;;;;;;35.63;26.60;;;;;;;13.19;66.25;94159.19;2988283;39;20097;-85
2021/04/03 08:12:24;;;;;;;37.50;25.48;;;;;;;13.06;66.65;94144.09;2981531;39;20060;-85
2021/04/03 08:14:28;;;;;;;31.57;26.53;;;;;;;13.06;66.38;94141.47;2993984;39;20087;-74
2021/04/03 08:16:31;;;;;;;33.45;26.35;;;;;;;13.01;67.29;94144.63;2989285;39;20063;-74
2021/04/03 08:18:33;;;;;;;36.65;26.90;;;;;;;13.23;66.43;94142.03;2989312;39;20176;-72
2021/04/03 08:20:35;;;;;;;28.85;24.17;;;;;;;13.42;65.75;94143.22;2986738;39;20347;-73
2021/04/03 08:22:36;;;;;;;30.17;26.85;;;;;;;13.64;65.07;94144.00;2987236;39;20343;-75
2021/04/03 08:24:38;;;;;;;33.10;27.48;;;;;;;13.02;66.18;94148.91;2991468;39;20056;-86
2021/04/03 08:26:40;;;;;;;32.50;27.15;;;;;;;13.03;66.85;94147.91;2992920;39;20055;-87
2021/04/03 08:28:42;;;;;;;36.88;27.80;;;;;;;13.10;66.62;94142.72;2994002;39;20075;-89
2021/04/03 08:30:43;;;;;;;33.08;27.80;;;;;;;13.20;66.12;94137.94;2993579;39;20075;-88
2021/04/03 08:33:02;;;;;;;34.90;27.77;;;;;;;13.20;66.82;94139.75;2992801;39;20082;-88
2021/04/03 08:35:04;;;;;;;32.75;26.30;;;;;;;13.57;65.83;94141.31;2990209;39;20324;-86
2021/04/03 08:37:08;;;;;;;33.25;27.35;;;;;;;13.93;64.63;94132.44;2985455;39;20075;-87
2021/04/03 08:39:11;;;;;;;38.20;26.75;;;;;;;14.04;64.12;94131.09;2986137;39;20064;-88
2021/04/03 08:41:17;;;;;;;31.60;24.88;;;;;;;14.26;63.67;94126.53;2985578;39;20060;-90
2021/04/03 08:43:21;;;;;;;36.20;25.85;;;;;;;14.43;63.43;94130.50;2993473;39;20063;-85
2021/04/03 08:45:22;;;;;;;29.35;23.08;;;;;;;14.38;62.30;94126.81;2993479;39;20071;-85
2021/04/03 08:47:23;;;;;;;30.17;22.08;;;;;;;14.38;62.00;94118.91;2996491;39;20146;-84
2021/04/03 08:49:36;;;;;;;32.05;20.95;;;;;;;14.28;62.38;94122.72;2994798;39;20074;-86
2021/04/03 08:51:38;;;;;;;28.53;21.37;;;;;;;14.58;61.88;94113.72;2988928;39;20066;-88
2021/04/03 08:53:44;;;;;;;30.88;20.10;;;;;;;14.81;60.96;94114.22;2993498;39;20079;-88
2021/04/03 08:55:45;;;;;;;23.52;20.35;;;;;;;14.93;60.94;94106.53;2993568;39;20070;-86
2021/04/03 08:57:46;;;;;;;22.55;17.25;;;;;;;15.23;59.46;94100.88;2992439;39;20146;-74
2021/04/03 08:59:48;;;;;;;24.85;16.42;;;;;;;15.39;59.13;94103.13;2989112;39;20394;-73
2021/04/03 09:01:52;;;;;;;22.42;15.55;;;;;;;15.57;58.05;94092.78;2990427;39;20355;-72
2021/04/03 09:03:57;;;;;;;19.77;14.98;;;;;;;15.82;57.20;94093.97;2987551;39;20055;-74
2021/04/03 09:06:00;;;;;;;21.25;16.48;;;;;;;15.73;56.46;94096.03;2988848;39;20068;-74
2021/04/03 09:08:01;;;;;;;22.45;15.07;;;;;;;15.22;57.38;94088.72;2989668;39;20096;-74
2021/04/03 09:10:14;;;;;;;21.80;13.90;;;;;;;15.10;57.10;94089.31;2989020;39;20150;-74
2021/04/03 09:12:15;;;;;;;20.42;15.73;;;;;;;15.14;57.39;94087.06;2988534;39;20157;-74
2021/04/03 09:14:24;;;;;;;28.80;20.45;;;;;;;15.31;56.96;94083.00;2989604;39;20059;-73
2021/04/03 09:16:34;;;;;;;20.08;15.00;;;;;;;15.55;56.43;94073.69;2989020;39;20067;-73
2021/04/03 09:18:37;;;;;;;18.83;14.55;;;;;;;15.36;56.40;94075.31;2988356;39;20378;-73
2021/04/03 09:20:47;;;;;;;15.88;12.20;;;;;;;14.83;56.63;94077.09;2990495;39;20070;-87
2021/04/03 09:22:51;;;;;;;14.32;12.05;;;;;;;15.00;56.51;94074.91;2993652;39;20128;-88
2021/04/03 09:24:56;;;;;;;;;;;;;;;14.70;57.53;94070.78;2982345;39;20082;-84
2021/04/03 09:27:10;;;;;;;20.45;12.05;;;;;;;14.94;57.10;94073.88;2994000;39;20312;-87
2021/04/03 09:29:12;;;;;;;20.35;12.43;;;;;;;15.33;55.94;94064.34;2992406;39;20182;-86
2021/04/03 09:31:13;;;;;;;17.73;11.68;;;;;;;15.65;55.44;94052.13;2992885;39;20445;-87